Latest Coastal Weather Observations for Cape Sorell

IDT60701

Issued at 5:32 am EST Monday 27 April 2015 (issued every 10 minutes, with the page automatically refreshed every 10 minutes)

About coastal observations | Map of coastal stations | Coastal observations for TAS | Marine services | Other Formats
Station Details ID: 097000 Name: CAPE SORELL Lat: -42.20 Lon: 145.17 Height: 19.3 m
Data from the previous 72 hours. | See also: Recent months at Cape Sorell
Date/Time
EST
Temp

°C
Wind Pressure Rain
since 9am
mm
Weather Cloud Vis
km
Sea
Height
m
Swell
Dir
 
Speed
knots
Gust
knots
hPa Trend Height
m
Period
s
Dir
27/05:30am 10.5 SSW 14 21 1018.5 - 2.6 - - - - - - -
27/05:00am 10.4 SW 17 20 1018.3 - 2.6 - - - - - - -
27/04:30am 10.6 SW 17 20 1017.9 - 2.6 - - - - - - -
27/04:00am 10.8 SSW 17 20 1017.8 - 2.6 - - - - - - -
27/03:30am 10.8 SW 20 24 1017.5 - 2.6 - - - - - - -
27/03:00am 10.5 SSW 20 24 1017.8 - 2.6 - - - - - - -
27/02:30am 10.6 SSW 13 18 1017.7 - 2.6 - - - - - - -
27/02:00am 10.8 SW 14 17 1017.7 - 2.6 - - - - - - -
27/01:30am 10.7 SSW 22 25 1017.4 - 2.6 - - - - - - -
27/01:00am 10.6 SW 18 20 1017.5 - 2.6 - - - - - - -
27/12:30am 11.1 SW 17 21 1017.5 - 2.6 - - - - - - -
27/12:00am 11.2 SW 17 21 1017.5 - 2.6 Recent precip. - - - - - -
 
Date/Time
EST
Temp

°C
Wind Pressure Rain
since 9am
mm
Weather Cloud Vis
km
Sea
Height
m
Swell
Dir
 
Speed
knots
Gust
knots
hPa Trend Height
m
Period
s
Dir
26/11:30pm 10.7 SW 19 23 1017.4 - 2.6 - - - - - - -
26/11:00pm 10.9 SSW 21 26 1017.2 - 2.4 - - - - - - -
26/10:30pm 11.1 SSW 18 21 1017.3 - 2.4 - - - - - - -
26/10:00pm 11.0 SSW 19 21 1017.2 - 2.4 - - - - - - -
26/09:30pm 10.8 SSW 19 22 1017.2 - 2.4 - - - - - - -
26/09:00pm 10.3 SW 15 19 1017.2 - 2.4 - - - - - - -
26/08:30pm 10.6 SW 23 27 1016.7 - 2.4 - - - - - - -
26/08:00pm 10.0 SSW 24 28 1016.7 - 2.4 - - - - - - -
26/07:30pm 11.3 SW 21 24 1016.2 - 2.4 - - - - - - -
26/07:00pm 11.5 SSW 19 25 1016.0 - 2.4 - - - - - - -
26/06:30pm 11.3 SSW 20 24 1015.7 - 2.4 - - - - - - -
26/06:00pm 10.9 SW 20 24 1015.2 - 2.4 - - - - - - -
26/05:30pm 11.2 SSW 20 24 1014.9 - 2.4 - - - - - - -
26/05:00pm 11.6 SSW 19 23 1014.6 - 2.4 - - - - - - -
26/04:30pm 11.0 SW 18 21 1014.4 - 2.4 - - - - - - -
26/04:00pm 10.9 SW 17 21 1014.2 - 2.4 - - - - - - -
26/03:34pm 11.4 SW 18 31 1014.0 - 2.2 - - - - - - -
26/03:30pm 11.4 SSW 16 20 1014.1 - 2.2 - - - - - - -
26/03:00pm 11.5 WSW 13 18 1013.9 - 2.0 Recent precip. - - - - - -
26/02:30pm 11.1 SW 19 27 1013.9 - 2.0 - - - - - - -
26/02:19pm 12.1 WSW 15 26 1013.7 - 1.6 - - - - - - -
26/02:00pm 11.8 WSW 15 19 1013.8 - 1.6 - - - - - - -
26/01:30pm 11.9 WSW 7 10 1014.1 - 1.6 - - - - - - -
26/01:00pm 12.2 WSW 10 12 1014.2 - 1.2 - - - - - - -
26/12:30pm 11.9 SSW 5 8 1014.4 - 1.2 - - - - - - -
26/12:00pm 11.5 NE 1 3 1014.6 - 1.2 Recent precip. - - - - - -
26/11:30am 11.0 N 4 6 1014.8 - 0.8 - - - - - - -
26/11:00am 11.1 N 3 4 1015.0 - 0.8 - - - - - - -
26/10:30am 10.3 NNW 2 4 1015.2 - 0.8 - - - - - - -
26/10:00am 9.9 W 5 7 1015.4 - 0.6 - - - - - - -
26/09:30am 10.0 W 7 11 1015.4 - 0.0 - - - - - - -
26/09:00am 10.4 NNE 3 8 1015.4 - 0.0 - - - - - - -
26/08:30am 10.3 NE 5 6 1015.2 - 0.0 - - - - - - -
26/08:00am 9.7 ENE 3 4 1015.1 - 0.0 - - - - - - -
26/07:30am 9.8 WSW 1 3 1015.0 - 0.0 - - - - - - -
26/07:00am 9.6 SW 5 7 1015.1 - 0.0 - - - - - - -
26/06:30am 9.8 SW 13 17 1015.0 - 0.0 - - - - - - -
26/06:00am 10.2 SW 10 15 1014.7 - 0.0 - - - - - - -
26/05:30am 10.2 SW 10 15 1014.7 - 0.0 - - - - - - -
26/05:00am 10.4 SW 15 19 1014.4 - 0.0 - - - - - - -
26/04:30am 10.5 SW 15 18 1014.2 - 0.0 - - - - - - -
26/04:00am 10.7 SW 13 16 1014.1 - 0.0 - - - - - - -
26/03:30am 10.8 SSW 11 14 1014.1 - 0.0 - - - - - - -
26/03:00am 10.5 SW 10 15 1014.2 - 0.0 - - - - - - -
26/02:30am 10.8 SW 13 15 1014.2 - 0.0 - - - - - - -
26/02:00am 10.9 SW 13 17 1014.3 - 0.0 - - - - - - -
26/01:30am 10.7 SW 10 14 1014.4 - 0.0 - - - - - - -
26/01:00am 11.0 SW 14 16 1014.2 - 0.0 - - - - - - -
26/12:30am 11.0 SW 12 16 1014.2 - 0.0 - - - - - - -
26/12:00am 11.0 SW 10 13 1014.3 - 0.0 - - - - - - -
 
Date/Time
EST
Temp

°C
Wind Pressure Rain
since 9am
mm
Weather Cloud Vis
km
Sea
Height
m
Swell
Dir
 
Speed
knots
Gust
knots
hPa Trend Height
m
Period
s
Dir
25/11:30pm 11.1 SW 11 15 1014.1 - 0.0 - - - - - - -
25/11:00pm 11.3 SW 15 17 1014.1 - 0.0 - - - - - - -
25/10:30pm 11.3 SSW 13 18 1014.3 - 0.0 - - - - - - -
25/10:00pm 11.2 S 10 15 1014.5 - 0.0 - - - - - - -
25/09:30pm 10.3 SE 6 10 1014.4 - 0.0 - - - - - - -
25/09:00pm 10.2 SE 6 10 1014.2 - 0.0 - - - - - - -
25/08:30pm 10.3 SE 7 9 1014.1 - 0.0 - - - - - - -
25/08:00pm 10.4 SE 8 10 1013.9 - 0.0 - - - - - - -
25/07:30pm 10.4 ESE 7 10 1013.7 - 0.0 - - - - - - -
25/07:00pm 11.2 SSE 12 17 1013.4 - 0.0 - - - - - - -
25/06:30pm 11.5 S 16 21 1013.0 - 0.0 - - - - - - -
25/06:00pm 11.5 S 18 23 1012.5 - 0.0 - - - - - - -
25/05:30pm 11.8 S 20 25 1011.8 - 0.0 - - - - - - -
25/05:00pm 12.1 S 21 26 1011.5 - 0.0 - - - - - - -
25/04:30pm 12.6 S 18 23 1011.4 - 0.0 - - - - - - -
25/04:00pm 12.8 S 18 21 1011.3 - 0.0 - - - - - - -
25/03:30pm 12.8 SSW 19 23 1011.1 - 0.0 - - - - - - -
25/03:00pm 13.0 S 19 23 1010.8 - 0.0 - - - - - - -
25/02:30pm 13.0 SSW 19 22 1010.5 - 0.0 - - - - - - -
25/02:00pm 13.1 SSW 19 22 1010.4 - 0.0 - - - - - - -
25/01:30pm 13.3 S 18 21 1010.5 - 0.0 - - - - - - -
25/01:00pm 13.5 S 16 20 1010.4 - 0.0 - - - - - - -
25/12:30pm 12.7 S 15 18 1010.4 - 0.0 - - - - - - -
25/12:00pm 12.5 S 16 20 1010.4 - 0.0 - - - - - - -
25/11:30am 12.9 S 14 17 1010.5 - 0.0 - - - - - - -
25/11:00am 12.2 S 13 18 1010.6 - 0.0 - - - - - - -
25/10:30am 11.9 SSE 13 17 1010.6 - 0.0 - - - - - - -
25/10:00am 11.9 SSE 13 18 1010.6 - 0.0 - - - - - - -
25/09:30am 11.5 SSE 11 15 1010.5 - 0.0 - - - - - - -
25/09:00am 10.9 SSE 11 15 1010.4 - 0.4 - - - - - - -
25/08:30am 10.7 SE 11 16 1010.1 - 0.4 - - - - - - -
25/08:00am 10.3 SSE 11 15 1009.8 - 0.4 - - - - - - -
25/07:30am 10.6 SSE 16 21 1009.1 - 0.4 - - - - - - -
25/07:00am 10.6 S 17 22 1008.7 - 0.4 - - - - - - -
25/06:41am 10.6 S 20 30 1008.5 - 0.4 - - - - - - -
25/06:30am 11.3 S 26 32 1007.8 - 0.4 - - - - - - -
25/06:26am 11.3 S 25 32 1007.6 - 0.4 - - - - - - -
25/06:00am 11.9 S 13 22 1007.7 - 0.0 - - - - - - -
25/05:30am 10.5 SE 4 5 1007.5 - 0.0 - - - - - - -
25/05:00am 10.4 SE 4 6 1007.3 - 0.0 - - - - - - -
25/04:30am 10.7 ESE 4 5 1006.9 - 0.0 - - - - - - -
25/04:00am 10.6 ESE 5 7 1006.8 - 0.0 - - - - - - -
25/03:30am 10.6 SE 6 7 1006.6 - 0.0 - - - - - - -
25/03:00am 10.8 SSE 9 12 1006.4 - 0.0 - - - - - - -
25/02:30am 11.5 SSE 8 13 1006.4 - 0.0 - - - - - - -
25/02:00am 11.2 SE 6 8 1006.3 - 0.0 - - - - - - -
25/01:30am 11.2 SE 5 6 1006.1 - 0.0 - - - - - - -
25/01:00am 11.3 SE 6 7 1006.1 - 0.0 - - - - - - -
25/12:30am 11.5 SE 7 10 1006.1 - 0.0 - - - - - - -
25/12:00am 12.1 SSE 6 8 1005.9 - 0.0 - - - - - - -
 
Date/Time
EST
Temp

°C
Wind Pressure Rain
since 9am
mm
Weather Cloud Vis
km
Sea
Height
m
Swell
Dir
 
Speed
knots
Gust
knots
hPa Trend Height
m
Period
s
Dir
24/11:30pm 12.0 SE 5 7 1005.8 - 0.0 - - - - - - -
24/11:00pm 12.1 SE 5 8 1005.7 - 0.0 - - - - - - -
24/10:30pm 12.1 SSE 6 8 1005.7 - 0.0 - - - - - - -
24/10:00pm 12.3 SSE 6 9 1005.6 - 0.0 - - - - - - -
24/09:30pm 11.9 ESE 6 12 1005.4 - 0.0 - - - - - - -
24/09:00pm 12.5 SSE 8 11 1005.2 - 0.0 - - - - - - -
24/08:30pm 12.6 S 11 14 1004.8 - 0.0 - - - - - - -
24/08:00pm 12.5 S 14 19 1004.5 - 0.0 - - - - - - -
24/07:30pm 12.7 S 18 23 1004.2 - 0.0 - - - - - - -
24/07:00pm 13.2 SSW 19 22 1003.9 - 0.0 - - - - - - -
24/06:30pm 13.3 S 18 21 1003.6 - 0.0 - - - - - - -
24/06:00pm 13.3 S 18 22 1003.3 - 0.0 - - - - - - -
24/05:30pm 13.5 S 18 21 1003.1 - 0.0 - - - - - - -
24/05:00pm 13.6 S 17 20 1002.9 - 0.0 - - - - - - -
24/04:30pm 13.7 S 15 19 1002.6 - 0.0 - - - - - - -
24/04:00pm 13.8 S 16 19 1002.4 - 0.0 - - - - - - -
24/03:30pm 14.0 S 14 17 1002.5 - 0.0 - - - - - - -
24/03:00pm 14.2 S 13 16 1002.4 - 0.0 - - - - - - -
24/02:30pm 14.2 S 12 15 1002.5 - 0.0 - - - - - - -
24/02:00pm 14.1 S 10 12 1002.8 - 0.0 - - - - - - -
24/01:30pm 14.2 S 12 14 1002.9 - 0.0 - - - - - - -
24/01:00pm 14.4 S 10 13 1003.1 - 0.0 - - - - - - -
24/12:30pm 14.3 S 12 14 1003.5 - 0.0 - - - - - - -
24/12:00pm 14.4 SSW 10 11 1003.9 - 0.0 - - - - - - -
24/11:30am 14.7 SSW 7 9 1004.1 - 0.0 - - - - - - -
24/11:00am 14.8 S 3 4 1004.3 - 0.0 - - - - - - -
24/10:30am 14.5 SE 2 4 1004.3 - 0.0 - - - - - - -
24/10:00am 14.3 SE 2 4 1004.6 - 0.0 - - - - - - -
24/09:30am 13.2 CALM 0 2 1004.9 - 0.0 - - - - - - -
24/09:00am 12.7 SE 3 4 1005.1 - 0.0 - - - - - - -
24/08:30am 12.3 SE 4 5 1005.4 - 0.0 - - - - - - -
24/08:00am 12.2 SE 4 5 1005.7 - 0.0 - - - - - - -
24/07:30am 12.1 SE 4 6 1005.6 - 0.0 - - - - - - -
24/07:00am 11.9 SE 4 6 1005.6 - 0.0 - - - - - - -
24/06:30am 11.9 SE 5 6 1005.9 - 0.0 - - - - - - -
24/06:00am 12.1 ESE 5 7 1006.2 - 0.0 - - - - - - -

Other Formats:

Comma delimited format used in spreadsheet applications
http://www.bom.gov.au/fwo/IDT60701/IDT60701.94974.axf

JavaScript Object Notation format (JSON) in row-major order
http://www.bom.gov.au/fwo/IDT60701/IDT60701.94974.json